sensor_id;sensor_type;location;lat;lon;timestamp;temperature;humidity
61841;DHT22;47773;53.174;6.614;2022-12-28T00:00:50;6.30;99.90
61841;DHT22;47773;53.174;6.614;2022-12-28T00:03:16;6.30;99.90
61841;DHT22;47773;53.174;6.614;2022-12-28T00:05:41;6.30;99.90
61841;DHT22;47773;53.174;6.614;2022-12-28T00:08:07;6.30;99.90
61841;DHT22;47773;53.174;6.614;2022-12-28T00:10:33;6.30;99.90
61841;DHT22;47773;53.174;6.614;2022-12-28T00:12:58;6.30;99.90
61841;DHT22;47773;53.174;6.614;2022-12-28T00:15:24;6.20;99.90
61841;DHT22;47773;53.174;6.614;2022-12-28T00:17:50;6.30;99.90
61841;DHT22;47773;53.174;6.614;2022-12-28T00:20:15;6.20;99.90
61841;DHT22;47773;53.174;6.614;2022-12-28T00:22:41;6.20;99.90
61841;DHT22;47773;53.174;6.614;2022-12-28T00:25:08;6.20;99.90
61841;DHT22;47773;53.174;6.614;2022-12-28T00:27:33;6.20;99.90
61841;DHT22;47773;53.174;6.614;2022-12-28T00:29:59;6.20;99.90
61841;DHT22;47773;53.174;6.614;2022-12-28T00:32:25;6.20;99.90
61841;DHT22;47773;53.174;6.614;2022-12-28T00:34:50;6.20;99.90
61841;DHT22;47773;53.174;6.614;2022-12-28T00:37:16;6.20;99.90
61841;DHT22;47773;53.174;6.614;2022-12-28T00:39:41;6.20;99.90
61841;DHT22;47773;53.174;6.614;2022-12-28T00:42:08;6.20;99.90
61841;DHT22;47773;53.174;6.614;2022-12-28T00:44:33;6.20;99.90
61841;DHT22;47773;53.174;6.614;2022-12-28T00:46:59;6.20;99.90
61841;DHT22;47773;53.174;6.614;2022-12-28T00:49:25;6.20;99.90
61841;DHT22;47773;53.174;6.614;2022-12-28T00:51:50;6.20;99.90
61841;DHT22;47773;53.174;6.614;2022-12-28T00:54:16;6.20;99.90
61841;DHT22;47773;53.174;6.614;2022-12-28T00:56:42;6.20;99.90
61841;DHT22;47773;53.174;6.614;2022-12-28T00:59:08;6.20;99.90
61841;DHT22;47773;53.174;6.614;2022-12-28T01:01:34;6.20;99.90
61841;DHT22;47773;53.174;6.614;2022-12-28T01:03:59;6.20;99.90
61841;DHT22;47773;53.174;6.614;2022-12-28T01:06:27;6.20;99.90
61841;DHT22;47773;53.174;6.614;2022-12-28T01:08:52;6.20;99.90
61841;DHT22;47773;53.174;6.614;2022-12-28T01:13:46;6.20;99.90
61841;DHT22;47773;53.174;6.614;2022-12-28T01:18:43;6.30;99.90
61841;DHT22;47773;53.174;6.614;2022-12-28T01:21:14;6.30;99.90
61841;DHT22;47773;53.174;6.614;2022-12-28T01:23:41;6.20;99.90
61841;DHT22;47773;53.174;6.614;2022-12-28T01:26:07;6.30;99.90
61841;DHT22;47773;53.174;6.614;2022-12-28T01:28:33;6.30;99.90
61841;DHT22;47773;53.174;6.614;2022-12-28T01:31:08;6.30;99.90
61841;DHT22;47773;53.174;6.614;2022-12-28T01:33:34;6.30;99.90
61841;DHT22;47773;53.174;6.614;2022-12-28T01:36:05;6.20;99.90
61841;DHT22;47773;53.174;6.614;2022-12-28T01:38:31;6.30;99.90
61841;DHT22;47773;53.174;6.614;2022-12-28T01:40:56;6.30;99.90
61841;DHT22;47773;53.174;6.614;2022-12-28T01:46:14;6.30;99.90
61841;DHT22;47773;53.174;6.614;2022-12-28T01:48:53;6.30;99.90
61841;DHT22;47773;53.174;6.614;2022-12-28T01:51:21;6.30;99.90
61841;DHT22;47773;53.174;6.614;2022-12-28T01:53:50;6.30;99.90
61841;DHT22;47773;53.174;6.614;2022-12-28T01:56:17;6.30;99.90
61841;DHT22;47773;53.174;6.614;2022-12-28T01:58:44;6.30;99.90
61841;DHT22;47773;53.174;6.614;2022-12-28T02:01:10;6.30;99.90
61841;DHT22;47773;53.174;6.614;2022-12-28T02:03:37;6.30;99.90
61841;DHT22;47773;53.174;6.614;2022-12-28T02:06:06;6.30;99.90
61841;DHT22;47773;53.174;6.614;2022-12-28T02:09:00;6.30;99.90
61841;DHT22;47773;53.174;6.614;2022-12-28T02:11:28;6.30;99.90
61841;DHT22;47773;53.174;6.614;2022-12-28T02:13:54;6.30;99.90
61841;DHT22;47773;53.174;6.614;2022-12-28T02:16:20;6.30;99.90
61841;DHT22;47773;53.174;6.614;2022-12-28T02:18:46;6.40;99.90
61841;DHT22;47773;53.174;6.614;2022-12-28T02:29:57;6.40;99.90
61841;DHT22;47773;53.174;6.614;2022-12-28T02:35:16;6.30;99.90
61841;DHT22;47773;53.174;6.614;2022-12-28T02:37:57;6.30;99.90
61841;DHT22;47773;53.174;6.614;2022-12-28T02:40:38;6.40;99.90
61841;DHT22;47773;53.174;6.614;2022-12-28T02:43:06;6.40;99.90
61841;DHT22;47773;53.174;6.614;2022-12-28T02:48:18;6.30;99.90
61841;DHT22;47773;53.174;6.614;2022-12-28T02:51:38;6.30;99.90
61841;DHT22;47773;53.174;6.614;2022-12-28T03:00:09;6.40;99.90
61841;DHT22;47773;53.174;6.614;2022-12-28T03:11:10;6.40;99.90
61841;DHT22;47773;53.174;6.614;2022-12-28T03:13:45;6.50;99.90
61841;DHT22;47773;53.174;6.614;2022-12-28T03:16:24;6.50;99.90
61841;DHT22;47773;53.174;6.614;2022-12-28T03:19:10;6.50;99.90
61841;DHT22;47773;53.174;6.614;2022-12-28T03:21:56;6.50;99.90
61841;DHT22;47773;53.174;6.614;2022-12-28T03:24:42;6.50;99.90
61841;DHT22;47773;53.174;6.614;2022-12-28T03:27:28;6.50;99.90
61841;DHT22;47773;53.174;6.614;2022-12-28T03:30:18;6.50;99.90
61841;DHT22;47773;53.174;6.614;2022-12-28T03:33:03;6.60;99.90
61841;DHT22;47773;53.174;6.614;2022-12-28T03:41:15;6.60;99.90
61841;DHT22;47773;53.174;6.614;2022-12-28T03:43:47;6.60;99.90
61841;DHT22;47773;53.174;6.614;2022-12-28T03:46:20;6.60;99.90
61841;DHT22;47773;53.174;6.614;2022-12-28T03:48:48;6.70;99.90
61841;DHT22;47773;53.174;6.614;2022-12-28T03:51:18;6.70;99.90
61841;DHT22;47773;53.174;6.614;2022-12-28T03:53:45;6.70;99.90
61841;DHT22;47773;53.174;6.614;2022-12-28T03:56:18;6.80;99.90
61841;DHT22;47773;53.174;6.614;2022-12-28T03:58:44;6.80;99.90
61841;DHT22;47773;53.174;6.614;2022-12-28T04:01:10;6.90;99.90
61841;DHT22;47773;53.174;6.614;2022-12-28T04:03:36;6.90;99.90
61841;DHT22;47773;53.174;6.614;2022-12-28T04:06:02;6.90;99.90
61841;DHT22;47773;53.174;6.614;2022-12-28T04:08:27;6.90;99.90
61841;DHT22;47773;53.174;6.614;2022-12-28T04:10:53;7.00;99.90
61841;DHT22;47773;53.174;6.614;2022-12-28T04:13:19;7.00;99.90
61841;DHT22;47773;53.174;6.614;2022-12-28T04:15:56;7.00;99.90
61841;DHT22;47773;53.174;6.614;2022-12-28T04:18:23;7.10;99.90
61841;DHT22;47773;53.174;6.614;2022-12-28T04:20:48;7.10;99.90
61841;DHT22;47773;53.174;6.614;2022-12-28T04:23:14;7.10;99.90
61841;DHT22;47773;53.174;6.614;2022-12-28T04:25:39;7.10;99.90
61841;DHT22;47773;53.174;6.614;2022-12-28T04:28:05;7.10;99.90
61841;DHT22;47773;53.174;6.614;2022-12-28T04:30:31;7.20;99.90
61841;DHT22;47773;53.174;6.614;2022-12-28T04:32:56;7.20;99.90
61841;DHT22;47773;53.174;6.614;2022-12-28T04:35:22;7.20;99.90
61841;DHT22;47773;53.174;6.614;2022-12-28T04:37:47;7.20;99.90
61841;DHT22;47773;53.174;6.614;2022-12-28T04:40:13;7.20;99.90
61841;DHT22;47773;53.174;6.614;2022-12-28T04:42:39;7.20;99.90
61841;DHT22;47773;53.174;6.614;2022-12-28T04:45:05;7.20;99.90
61841;DHT22;47773;53.174;6.614;2022-12-28T04:47:30;7.20;99.90
61841;DHT22;47773;53.174;6.614;2022-12-28T04:49:56;7.20;99.90
61841;DHT22;47773;53.174;6.614;2022-12-28T04:52:22;7.20;99.90
61841;DHT22;47773;53.174;6.614;2022-12-28T04:54:48;7.30;99.90
61841;DHT22;47773;53.174;6.614;2022-12-28T04:57:13;7.30;99.90
61841;DHT22;47773;53.174;6.614;2022-12-28T04:59:39;7.30;99.90
61841;DHT22;47773;53.174;6.614;2022-12-28T05:02:06;7.40;99.90
61841;DHT22;47773;53.174;6.614;2022-12-28T05:04:31;7.40;99.90
61841;DHT22;47773;53.174;6.614;2022-12-28T05:06:57;7.40;99.90
61841;DHT22;47773;53.174;6.614;2022-12-28T05:09:22;7.40;99.90
61841;DHT22;47773;53.174;6.614;2022-12-28T05:11:48;7.40;99.90
61841;DHT22;47773;53.174;6.614;2022-12-28T05:14:14;7.40;99.90
61841;DHT22;47773;53.174;6.614;2022-12-28T05:16:40;7.50;99.90
61841;DHT22;47773;53.174;6.614;2022-12-28T05:19:05;7.50;99.90
61841;DHT22;47773;53.174;6.614;2022-12-28T05:21:31;7.50;99.90
61841;DHT22;47773;53.174;6.614;2022-12-28T05:23:57;7.50;99.90
61841;DHT22;47773;53.174;6.614;2022-12-28T05:26:25;7.50;99.90
61841;DHT22;47773;53.174;6.614;2022-12-28T05:28:51;7.50;99.90
61841;DHT22;47773;53.174;6.614;2022-12-28T05:31:18;7.60;99.90
61841;DHT22;47773;53.174;6.614;2022-12-28T05:33:44;7.60;99.90
61841;DHT22;47773;53.174;6.614;2022-12-28T05:36:16;7.60;99.90
61841;DHT22;47773;53.174;6.614;2022-12-28T05:38:42;7.60;99.90
61841;DHT22;47773;53.174;6.614;2022-12-28T05:41:17;7.70;99.90
61841;DHT22;47773;53.174;6.614;2022-12-28T05:43:44;7.70;99.90
61841;DHT22;47773;53.174;6.614;2022-12-28T05:46:14;7.70;99.90
61841;DHT22;47773;53.174;6.614;2022-12-28T05:48:41;7.80;99.90
61841;DHT22;47773;53.174;6.614;2022-12-28T05:51:08;7.80;99.90
61841;DHT22;47773;53.174;6.614;2022-12-28T05:53:35;7.80;99.90
61841;DHT22;47773;53.174;6.614;2022-12-28T05:56:12;7.90;99.90
61841;DHT22;47773;53.174;6.614;2022-12-28T05:58:39;7.90;99.90
61841;DHT22;47773;53.174;6.614;2022-12-28T06:01:11;7.90;99.90
61841;DHT22;47773;53.174;6.614;2022-12-28T06:03:37;8.00;99.90
61841;DHT22;47773;53.174;6.614;2022-12-28T06:06:17;8.00;99.90
61841;DHT22;47773;53.174;6.614;2022-12-28T06:08:44;8.10;99.90
61841;DHT22;47773;53.174;6.614;2022-12-28T06:11:12;8.10;99.90
61841;DHT22;47773;53.174;6.614;2022-12-28T06:13:38;8.10;99.90
61841;DHT22;47773;53.174;6.614;2022-12-28T06:16:13;8.20;99.90
61841;DHT22;47773;53.174;6.614;2022-12-28T06:18:39;8.20;99.90
61841;DHT22;47773;53.174;6.614;2022-12-28T06:21:12;8.20;99.90
61841;DHT22;47773;53.174;6.614;2022-12-28T06:23:39;8.20;99.90
61841;DHT22;47773;53.174;6.614;2022-12-28T06:26:06;8.20;99.90
61841;DHT22;47773;53.174;6.614;2022-12-28T06:28:32;8.30;99.90
61841;DHT22;47773;53.174;6.614;2022-12-28T06:31:06;8.30;99.90
61841;DHT22;47773;53.174;6.614;2022-12-28T06:33:33;8.30;99.90
61841;DHT22;47773;53.174;6.614;2022-12-28T06:35:59;8.30;99.90
61841;DHT22;47773;53.174;6.614;2022-12-28T06:38:25;8.40;99.90
61841;DHT22;47773;53.174;6.614;2022-12-28T06:40:52;8.40;99.90
61841;DHT22;47773;53.174;6.614;2022-12-28T06:43:17;8.40;99.90
61841;DHT22;47773;53.174;6.614;2022-12-28T06:45:53;8.50;99.90
61841;DHT22;47773;53.174;6.614;2022-12-28T06:48:19;8.40;99.90
61841;DHT22;47773;53.174;6.614;2022-12-28T06:51:03;8.40;99.90
61841;DHT22;47773;53.174;6.614;2022-12-28T06:53:31;8.40;99.90
61841;DHT22;47773;53.174;6.614;2022-12-28T06:56:05;8.40;99.90
61841;DHT22;47773;53.174;6.614;2022-12-28T06:58:31;8.40;99.90
61841;DHT22;47773;53.174;6.614;2022-12-28T07:01:07;8.40;99.90
61841;DHT22;47773;53.174;6.614;2022-12-28T07:03:33;8.40;99.90
61841;DHT22;47773;53.174;6.614;2022-12-28T07:06:00;8.40;99.90
61841;DHT22;47773;53.174;6.614;2022-12-28T07:08:26;8.40;99.90
61841;DHT22;47773;53.174;6.614;2022-12-28T07:10:52;8.50;99.90
61841;DHT22;47773;53.174;6.614;2022-12-28T07:13:17;8.50;99.90
61841;DHT22;47773;53.174;6.614;2022-12-28T07:15:43;8.50;99.90
61841;DHT22;47773;53.174;6.614;2022-12-28T07:18:09;8.50;99.90
61841;DHT22;47773;53.174;6.614;2022-12-28T07:20:34;8.50;99.90
61841;DHT22;47773;53.174;6.614;2022-12-28T07:23:00;8.60;99.90
61841;DHT22;47773;53.174;6.614;2022-12-28T07:25:26;8.60;99.90
61841;DHT22;47773;53.174;6.614;2022-12-28T07:27:51;8.60;99.90
61841;DHT22;47773;53.174;6.614;2022-12-28T07:30:17;8.60;99.90
61841;DHT22;47773;53.174;6.614;2022-12-28T07:32:43;8.70;99.90
61841;DHT22;47773;53.174;6.614;2022-12-28T07:35:09;8.70;99.90
61841;DHT22;47773;53.174;6.614;2022-12-28T07:37:34;8.70;99.90
61841;DHT22;47773;53.174;6.614;2022-12-28T07:40:00;8.60;99.90
61841;DHT22;47773;53.174;6.614;2022-12-28T07:42:28;8.70;99.90
61841;DHT22;47773;53.174;6.614;2022-12-28T07:44:53;8.80;99.90
61841;DHT22;47773;53.174;6.614;2022-12-28T07:47:19;8.80;99.90
61841;DHT22;47773;53.174;6.614;2022-12-28T07:49:45;8.80;99.90
61841;DHT22;47773;53.174;6.614;2022-12-28T07:52:10;8.80;99.90
61841;DHT22;47773;53.174;6.614;2022-12-28T07:54:36;8.80;99.90
61841;DHT22;47773;53.174;6.614;2022-12-28T07:57:01;8.90;99.90
61841;DHT22;47773;53.174;6.614;2022-12-28T07:59:27;8.90;99.90
61841;DHT22;47773;53.174;6.614;2022-12-28T08:01:53;8.90;99.90
61841;DHT22;47773;53.174;6.614;2022-12-28T08:04:18;9.00;99.90
61841;DHT22;47773;53.174;6.614;2022-12-28T08:06:45;9.00;99.90
61841;DHT22;47773;53.174;6.614;2022-12-28T08:09:13;9.10;99.90
61841;DHT22;47773;53.174;6.614;2022-12-28T08:11:41;9.10;99.90
61841;DHT22;47773;53.174;6.614;2022-12-28T08:14:07;9.10;99.90
61841;DHT22;47773;53.174;6.614;2022-12-28T08:16:37;9.10;99.90
61841;DHT22;47773;53.174;6.614;2022-12-28T08:21:43;9.10;99.90
61841;DHT22;47773;53.174;6.614;2022-12-28T08:24:13;9.20;99.90
61841;DHT22;47773;53.174;6.614;2022-12-28T08:26:47;9.20;99.90
61841;DHT22;47773;53.174;6.614;2022-12-28T08:29:17;9.20;99.90
61841;DHT22;47773;53.174;6.614;2022-12-28T08:31:44;9.20;99.90
61841;DHT22;47773;53.174;6.614;2022-12-28T08:34:13;9.20;99.90
61841;DHT22;47773;53.174;6.614;2022-12-28T08:36:39;9.20;99.90
61841;DHT22;47773;53.174;6.614;2022-12-28T08:39:06;9.20;99.90
61841;DHT22;47773;53.174;6.614;2022-12-28T08:41:31;9.20;99.90
61841;DHT22;47773;53.174;6.614;2022-12-28T08:43:57;9.20;99.90
61841;DHT22;47773;53.174;6.614;2022-12-28T08:46:28;9.20;99.90
61841;DHT22;47773;53.174;6.614;2022-12-28T08:48:55;9.20;99.90
61841;DHT22;47773;53.174;6.614;2022-12-28T08:51:28;9.20;99.90
61841;DHT22;47773;53.174;6.614;2022-12-28T08:53:54;9.20;99.90
61841;DHT22;47773;53.174;6.614;2022-12-28T08:56:22;9.20;99.90
61841;DHT22;47773;53.174;6.614;2022-12-28T08:58:49;9.20;99.90
61841;DHT22;47773;53.174;6.614;2022-12-28T09:01:18;9.20;99.90
61841;DHT22;47773;53.174;6.614;2022-12-28T09:03:46;9.20;99.90
61841;DHT22;47773;53.174;6.614;2022-12-28T09:06:14;9.20;99.90
61841;DHT22;47773;53.174;6.614;2022-12-28T09:08:40;9.20;99.90
61841;DHT22;47773;53.174;6.614;2022-12-28T09:11:10;9.10;99.90
61841;DHT22;47773;53.174;6.614;2022-12-28T09:13:36;9.10;99.90
61841;DHT22;47773;53.174;6.614;2022-12-28T09:16:10;9.10;99.90
61841;DHT22;47773;53.174;6.614;2022-12-28T09:18:36;9.20;99.90
61841;DHT22;47773;53.174;6.614;2022-12-28T09:21:07;9.20;99.90
61841;DHT22;47773;53.174;6.614;2022-12-28T09:23:34;9.10;99.90
61841;DHT22;47773;53.174;6.614;2022-12-28T09:26:13;9.20;99.90
61841;DHT22;47773;53.174;6.614;2022-12-28T09:28:45;9.20;99.90
61841;DHT22;47773;53.174;6.614;2022-12-28T09:31:11;9.20;99.90
61841;DHT22;47773;53.174;6.614;2022-12-28T09:33:37;9.20;99.90
61841;DHT22;47773;53.174;6.614;2022-12-28T09:36:21;9.20;99.90
61841;DHT22;47773;53.174;6.614;2022-12-28T09:38:48;9.20;99.90
61841;DHT22;47773;53.174;6.614;2022-12-28T09:41:38;9.20;99.90
61841;DHT22;47773;53.174;6.614;2022-12-28T09:46:41;9.30;99.90
61841;DHT22;47773;53.174;6.614;2022-12-28T09:49:16;9.30;99.90
61841;DHT22;47773;53.174;6.614;2022-12-28T09:51:50;9.30;99.90
61841;DHT22;47773;53.174;6.614;2022-12-28T09:54:17;9.30;99.90
61841;DHT22;47773;53.174;6.614;2022-12-28T09:56:44;9.20;99.90
61841;DHT22;47773;53.174;6.614;2022-12-28T09:59:16;9.30;99.90
61841;DHT22;47773;53.174;6.614;2022-12-28T10:01:44;9.30;99.90
61841;DHT22;47773;53.174;6.614;2022-12-28T10:04:13;9.30;99.90
61841;DHT22;47773;53.174;6.614;2022-12-28T10:06:39;9.30;99.90
61841;DHT22;47773;53.174;6.614;2022-12-28T10:09:12;9.30;99.90
61841;DHT22;47773;53.174;6.614;2022-12-28T10:11:42;9.30;99.90
61841;DHT22;47773;53.174;6.614;2022-12-28T10:16:42;9.30;99.90
61841;DHT22;47773;53.174;6.614;2022-12-28T10:19:09;9.30;99.90
61841;DHT22;47773;53.174;6.614;2022-12-28T10:21:35;9.40;99.90
61841;DHT22;47773;53.174;6.614;2022-12-28T10:24:04;9.30;99.90
61841;DHT22;47773;53.174;6.614;2022-12-28T10:26:31;9.30;99.90
61841;DHT22;47773;53.174;6.614;2022-12-28T10:28:59;9.30;99.90
61841;DHT22;47773;53.174;6.614;2022-12-28T10:31:39;9.40;99.90
61841;DHT22;47773;53.174;6.614;2022-12-28T10:34:16;9.40;99.90
61841;DHT22;47773;53.174;6.614;2022-12-28T10:36:46;9.40;99.90
61841;DHT22;47773;53.174;6.614;2022-12-28T10:39:31;9.40;99.90
61841;DHT22;47773;53.174;6.614;2022-12-28T10:41:58;9.40;99.90
61841;DHT22;47773;53.174;6.614;2022-12-28T10:44:30;9.50;99.90
61841;DHT22;47773;53.174;6.614;2022-12-28T10:47:05;9.50;99.90
61841;DHT22;47773;53.174;6.614;2022-12-28T10:49:47;9.50;99.90
61841;DHT22;47773;53.174;6.614;2022-12-28T10:54:40;9.50;99.90
61841;DHT22;47773;53.174;6.614;2022-12-28T10:57:19;9.50;99.90
61841;DHT22;47773;53.174;6.614;2022-12-28T10:59:45;9.50;99.90
61841;DHT22;47773;53.174;6.614;2022-12-28T11:02:25;9.50;99.90
61841;DHT22;47773;53.174;6.614;2022-12-28T11:05:00;9.50;99.90
61841;DHT22;47773;53.174;6.614;2022-12-28T11:07:29;9.50;99.90
61841;DHT22;47773;53.174;6.614;2022-12-28T11:12:44;9.60;99.90
61841;DHT22;47773;53.174;6.614;2022-12-28T11:15:15;9.60;99.90
61841;DHT22;47773;53.174;6.614;2022-12-28T11:17:41;9.60;99.90
61841;DHT22;47773;53.174;6.614;2022-12-28T11:22:37;9.60;99.90
61841;DHT22;47773;53.174;6.614;2022-12-28T11:25:05;9.60;99.90
61841;DHT22;47773;53.174;6.614;2022-12-28T11:27:33;9.70;99.90
61841;DHT22;47773;53.174;6.614;2022-12-28T11:29:59;9.60;99.90
61841;DHT22;47773;53.174;6.614;2022-12-28T11:32:38;9.60;99.90
61841;DHT22;47773;53.174;6.614;2022-12-28T11:35:21;9.60;99.90
61841;DHT22;47773;53.174;6.614;2022-12-28T11:37:51;9.60;99.90
61841;DHT22;47773;53.174;6.614;2022-12-28T11:43:47;9.60;99.90
61841;DHT22;47773;53.174;6.614;2022-12-28T11:48:59;9.60;99.90
61841;DHT22;47773;53.174;6.614;2022-12-28T11:51:35;9.60;99.90
61841;DHT22;47773;53.174;6.614;2022-12-28T11:54:33;9.60;99.90
61841;DHT22;47773;53.174;6.614;2022-12-28T12:01:51;9.60;99.90
61841;DHT22;47773;53.174;6.614;2022-12-28T12:11:51;9.60;99.90
61841;DHT22;47773;53.174;6.614;2022-12-28T12:20:28;9.50;99.90
61841;DHT22;47773;53.174;6.614;2022-12-28T12:25:48;9.50;99.90
61841;DHT22;47773;53.174;6.614;2022-12-28T12:28:46;9.50;99.90
61841;DHT22;47773;53.174;6.614;2022-12-28T12:31:18;9.50;99.90
61841;DHT22;47773;53.174;6.614;2022-12-28T12:33:47;9.50;99.90
61841;DHT22;47773;53.174;6.614;2022-12-28T12:51:54;9.50;99.90
61841;DHT22;47773;53.174;6.614;2022-12-28T12:57:19;9.50;99.90
61841;DHT22;47773;53.174;6.614;2022-12-28T13:05:25;9.50;99.90
61841;DHT22;47773;53.174;6.614;2022-12-28T13:07:52;9.50;99.90
61841;DHT22;47773;53.174;6.614;2022-12-28T13:10:41;9.60;99.90
61841;DHT22;47773;53.174;6.614;2022-12-28T13:13:17;9.50;99.90
61841;DHT22;47773;53.174;6.614;2022-12-28T13:15:47;9.50;99.90
61841;DHT22;47773;53.174;6.614;2022-12-28T13:18:19;9.50;99.90
61841;DHT22;47773;53.174;6.614;2022-12-28T13:20:56;9.50;99.90
61841;DHT22;47773;53.174;6.614;2022-12-28T13:23:23;9.50;99.90
61841;DHT22;47773;53.174;6.614;2022-12-28T13:25:51;9.50;99.90
61841;DHT22;47773;53.174;6.614;2022-12-28T13:28:26;9.60;99.90
61841;DHT22;47773;53.174;6.614;2022-12-28T13:31:16;9.50;99.90
61841;DHT22;47773;53.174;6.614;2022-12-28T13:33:53;9.50;99.90
61841;DHT22;47773;53.174;6.614;2022-12-28T13:36:18;9.50;99.90
61841;DHT22;47773;53.174;6.614;2022-12-28T13:38:44;9.60;99.90
61841;DHT22;47773;53.174;6.614;2022-12-28T13:41:21;9.50;99.90
61841;DHT22;47773;53.174;6.614;2022-12-28T13:44:06;9.50;99.90
61841;DHT22;47773;53.174;6.614;2022-12-28T13:46:37;9.50;99.90
61841;DHT22;47773;53.174;6.614;2022-12-28T13:49:05;9.60;99.90
61841;DHT22;47773;53.174;6.614;2022-12-28T13:51:35;9.50;99.90
61841;DHT22;47773;53.174;6.614;2022-12-28T13:54:02;9.60;99.90
61841;DHT22;47773;53.174;6.614;2022-12-28T13:56:29;9.60;99.90
61841;DHT22;47773;53.174;6.614;2022-12-28T13:59:02;9.50;99.90
61841;DHT22;47773;53.174;6.614;2022-12-28T14:01:39;9.60;99.90
61841;DHT22;47773;53.174;6.614;2022-12-28T14:04:12;9.50;99.90
61841;DHT22;47773;53.174;6.614;2022-12-28T14:06:40;9.50;99.90
61841;DHT22;47773;53.174;6.614;2022-12-28T14:09:10;9.50;99.90
61841;DHT22;47773;53.174;6.614;2022-12-28T14:11:37;9.50;99.90
61841;DHT22;47773;53.174;6.614;2022-12-28T14:14:04;9.50;99.90
61841;DHT22;47773;53.174;6.614;2022-12-28T14:16:30;9.40;99.90
61841;DHT22;47773;53.174;6.614;2022-12-28T14:18:56;9.40;99.90
61841;DHT22;47773;53.174;6.614;2022-12-28T14:21:36;9.40;99.90
61841;DHT22;47773;53.174;6.614;2022-12-28T14:24:04;9.40;99.90
61841;DHT22;47773;53.174;6.614;2022-12-28T14:26:31;9.40;99.90
61841;DHT22;47773;53.174;6.614;2022-12-28T14:28:58;9.30;99.90
61841;DHT22;47773;53.174;6.614;2022-12-28T14:31:29;9.30;99.90
61841;DHT22;47773;53.174;6.614;2022-12-28T14:34:01;9.40;99.90
61841;DHT22;47773;53.174;6.614;2022-12-28T14:36:41;9.40;99.90
61841;DHT22;47773;53.174;6.614;2022-12-28T14:41:55;9.30;99.90
61841;DHT22;47773;53.174;6.614;2022-12-28T14:44:31;9.30;99.90
61841;DHT22;47773;53.174;6.614;2022-12-28T14:46:57;9.30;99.90
61841;DHT22;47773;53.174;6.614;2022-12-28T14:54:43;9.30;99.90
61841;DHT22;47773;53.174;6.614;2022-12-28T14:57:29;9.30;99.90
61841;DHT22;47773;53.174;6.614;2022-12-28T15:00:05;9.30;99.90
61841;DHT22;47773;53.174;6.614;2022-12-28T15:05:02;9.30;99.90
61841;DHT22;47773;53.174;6.614;2022-12-28T15:07:30;9.20;99.90
61841;DHT22;47773;53.174;6.614;2022-12-28T15:09:56;9.30;99.90
61841;DHT22;47773;53.174;6.614;2022-12-28T15:12:21;9.30;99.90
61841;DHT22;47773;53.174;6.614;2022-12-28T15:14:47;9.30;99.90
61841;DHT22;47773;53.174;6.614;2022-12-28T15:17:14;9.30;99.90
61841;DHT22;47773;53.174;6.614;2022-12-28T15:19:43;9.30;99.90
61841;DHT22;47773;53.174;6.614;2022-12-28T15:22:10;9.30;99.90
61841;DHT22;47773;53.174;6.614;2022-12-28T15:24:36;9.30;99.90
61841;DHT22;47773;53.174;6.614;2022-12-28T15:27:02;9.40;99.90
61841;DHT22;47773;53.174;6.614;2022-12-28T15:29:28;9.30;99.90
61841;DHT22;47773;53.174;6.614;2022-12-28T15:31:53;9.40;99.90
61841;DHT22;47773;53.174;6.614;2022-12-28T15:34:19;9.30;99.90
61841;DHT22;47773;53.174;6.614;2022-12-28T15:36:45;9.40;99.90
61841;DHT22;47773;53.174;6.614;2022-12-28T15:39:14;9.40;99.90
61841;DHT22;47773;53.174;6.614;2022-12-28T15:41:40;9.40;99.90
61841;DHT22;47773;53.174;6.614;2022-12-28T15:44:17;9.40;99.90
61841;DHT22;47773;53.174;6.614;2022-12-28T15:46:44;9.40;99.90
61841;DHT22;47773;53.174;6.614;2022-12-28T15:49:12;9.40;99.90
61841;DHT22;47773;53.174;6.614;2022-12-28T15:51:38;9.40;99.90
61841;DHT22;47773;53.174;6.614;2022-12-28T15:54:04;9.40;99.90
61841;DHT22;47773;53.174;6.614;2022-12-28T15:56:32;9.40;99.90
61841;DHT22;47773;53.174;6.614;2022-12-28T15:59:01;9.40;99.90
61841;DHT22;47773;53.174;6.614;2022-12-28T16:01:28;9.40;99.90
61841;DHT22;47773;53.174;6.614;2022-12-28T16:03:58;9.40;99.90
61841;DHT22;47773;53.174;6.614;2022-12-28T16:06:24;9.40;99.90
61841;DHT22;47773;53.174;6.614;2022-12-28T16:08:59;9.40;99.90
61841;DHT22;47773;53.174;6.614;2022-12-28T16:11:26;9.40;99.90
61841;DHT22;47773;53.174;6.614;2022-12-28T16:14:00;9.40;99.90
61841;DHT22;47773;53.174;6.614;2022-12-28T16:16:29;9.40;99.90
61841;DHT22;47773;53.174;6.614;2022-12-28T16:18:56;9.40;99.90
61841;DHT22;47773;53.174;6.614;2022-12-28T16:21:23;9.40;99.90
61841;DHT22;47773;53.174;6.614;2022-12-28T16:23:50;9.40;99.90
61841;DHT22;47773;53.174;6.614;2022-12-28T16:26:16;9.40;99.90
61841;DHT22;47773;53.174;6.614;2022-12-28T16:28:42;9.40;99.90
61841;DHT22;47773;53.174;6.614;2022-12-28T16:31:29;9.40;99.90
61841;DHT22;47773;53.174;6.614;2022-12-28T16:34:00;9.40;99.90
61841;DHT22;47773;53.174;6.614;2022-12-28T16:36:26;9.40;99.90
61841;DHT22;47773;53.174;6.614;2022-12-28T16:38:52;9.40;99.90
61841;DHT22;47773;53.174;6.614;2022-12-28T16:41:19;9.40;99.90
61841;DHT22;47773;53.174;6.614;2022-12-28T16:43:45;9.40;99.90
61841;DHT22;47773;53.174;6.614;2022-12-28T16:46:11;9.40;99.90
61841;DHT22;47773;53.174;6.614;2022-12-28T16:48:37;9.40;99.90
61841;DHT22;47773;53.174;6.614;2022-12-28T16:51:04;9.40;99.90
61841;DHT22;47773;53.174;6.614;2022-12-28T16:53:31;9.40;99.90
61841;DHT22;47773;53.174;6.614;2022-12-28T16:56:03;9.40;99.90
61841;DHT22;47773;53.174;6.614;2022-12-28T16:58:33;9.40;99.90
61841;DHT22;47773;53.174;6.614;2022-12-28T17:01:07;9.30;99.90
61841;DHT22;47773;53.174;6.614;2022-12-28T17:03:34;9.30;99.90
61841;DHT22;47773;53.174;6.614;2022-12-28T17:06:00;9.30;99.90
61841;DHT22;47773;53.174;6.614;2022-12-28T17:08:25;9.30;99.90
61841;DHT22;47773;53.174;6.614;2022-12-28T17:10:51;9.30;99.90
61841;DHT22;47773;53.174;6.614;2022-12-28T17:13:17;9.30;99.90
61841;DHT22;47773;53.174;6.614;2022-12-28T17:15:42;9.30;99.90
61841;DHT22;47773;53.174;6.614;2022-12-28T17:18:10;9.20;99.90
61841;DHT22;47773;53.174;6.614;2022-12-28T17:20:37;9.20;99.90
61841;DHT22;47773;53.174;6.614;2022-12-28T17:23:03;9.30;99.90
61841;DHT22;47773;53.174;6.614;2022-12-28T17:25:30;9.30;99.90
61841;DHT22;47773;53.174;6.614;2022-12-28T17:27:56;9.20;99.90
61841;DHT22;47773;53.174;6.614;2022-12-28T17:30:22;9.20;99.90
61841;DHT22;47773;53.174;6.614;2022-12-28T17:32:48;9.20;99.90
61841;DHT22;47773;53.174;6.614;2022-12-28T17:35:14;9.20;99.90
61841;DHT22;47773;53.174;6.614;2022-12-28T17:37:40;9.20;99.90
61841;DHT22;47773;53.174;6.614;2022-12-28T17:40:06;9.20;99.90
61841;DHT22;47773;53.174;6.614;2022-12-28T17:42:32;9.20;99.90
61841;DHT22;47773;53.174;6.614;2022-12-28T17:44:58;9.20;99.90
61841;DHT22;47773;53.174;6.614;2022-12-28T17:47:23;9.20;99.90
61841;DHT22;47773;53.174;6.614;2022-12-28T17:49:50;9.20;99.90
61841;DHT22;47773;53.174;6.614;2022-12-28T17:52:16;9.20;99.90
61841;DHT22;47773;53.174;6.614;2022-12-28T17:54:46;9.20;99.90
61841;DHT22;47773;53.174;6.614;2022-12-28T17:57:12;9.20;99.90